createdAt,value
2023-12-30T00:00:18.686Z,93944.81
2023-12-30T00:01:17.064Z,93950.66
2023-12-30T00:02:13.914Z,93956.03
2023-12-30T00:03:10.502Z,93951.25
2023-12-30T00:04:07.173Z,93947.53
2023-12-30T00:05:04.490Z,93952.59
2023-12-30T00:06:01.334Z,93952.50
2023-12-30T00:06:58.124Z,93949.09
2023-12-30T00:07:54.943Z,93951.59
2023-12-30T00:08:51.640Z,93947.56
2023-12-30T00:09:48.356Z,93947.38
2023-12-30T00:10:45.036Z,93947.19
2023-12-30T00:11:42.116Z,93939.28
2023-12-30T00:12:38.746Z,93947.28
2023-12-30T00:13:35.420Z,93937.34
2023-12-30T00:14:32.015Z,93934.31
2023-12-30T00:15:28.632Z,93942.66
2023-12-30T00:16:28.711Z,93942.63
2023-12-30T00:17:25.432Z,93947.97
2023-12-30T00:18:22.116Z,93950.81
2023-12-30T00:19:19.130Z,93954.44
2023-12-30T00:20:15.867Z,93949.38
2023-12-30T00:21:13.449Z,93950.81
2023-12-30T00:22:10.165Z,93957.00
2023-12-30T00:23:07.230Z,93957.34
2023-12-30T00:24:04.457Z,93953.59
2023-12-30T00:25:01.189Z,93954.28
2023-12-30T00:25:57.843Z,93966.69
2023-12-30T00:26:54.554Z,93967.53
2023-12-30T00:27:53.080Z,93969.31
2023-12-30T00:28:50.986Z,93962.94
2023-12-30T00:29:47.654Z,93958.38
2023-12-30T00:30:44.464Z,93961.44
2023-12-30T00:31:41.465Z,93961.81
2023-12-30T00:32:38.266Z,93965.91
2023-12-30T00:33:35.066Z,93964.84
2023-12-30T00:34:35.149Z,93956.00
2023-12-30T00:35:31.888Z,93955.00
2023-12-30T00:36:29.202Z,93958.28
2023-12-30T00:37:25.942Z,93959.06
2023-12-30T00:38:24.446Z,93960.25
2023-12-30T00:39:21.514Z,93959.81
2023-12-30T00:40:25.856Z,93951.78
2023-12-30T00:41:24.795Z,93950.28
2023-12-30T00:42:21.579Z,93935.34
2023-12-30T00:43:19.037Z,93946.88
2023-12-30T00:44:15.683Z,93954.38
2023-12-30T00:45:12.291Z,93946.91
2023-12-30T00:46:09.755Z,93940.53
2023-12-30T00:47:07.269Z,93944.38
2023-12-30T00:48:04.485Z,93957.94
2023-12-30T00:49:01.198Z,93950.63
2023-12-30T00:49:58.005Z,93950.63
2023-12-30T00:50:54.661Z,93948.63
2023-12-30T00:51:51.337Z,93950.38
2023-12-30T00:52:48.006Z,93962.16
2023-12-30T00:53:44.695Z,93963.56
2023-12-30T00:54:48.025Z,93956.75
2023-12-30T00:55:48.495Z,93961.84
2023-12-30T00:56:45.449Z,93959.50
2023-12-30T00:57:42.180Z,93959.91
2023-12-30T00:58:38.867Z,93959.69
2023-12-30T00:59:35.554Z,93962.97
2023-12-30T01:00:32.249Z,93961.13
2023-12-30T01:01:28.922Z,93963.72
2023-12-30T01:02:25.766Z,93965.91
2023-12-30T01:03:22.475Z,93966.50
2023-12-30T01:04:19.276Z,93976.50
2023-12-30T01:05:15.952Z,93963.66
2023-12-30T01:06:12.645Z,93963.72
2023-12-30T01:07:09.324Z,93964.84
2023-12-30T01:08:06.308Z,93967.31
2023-12-30T01:09:03.441Z,93958.63
2023-12-30T01:10:00.061Z,93960.41
2023-12-30T01:10:56.786Z,93960.81
2023-12-30T01:11:53.377Z,93963.00
2023-12-30T01:12:50.443Z,93962.59
2023-12-30T01:13:47.097Z,93955.72
2023-12-30T01:14:44.270Z,93955.44
2023-12-30T01:15:41.961Z,93959.41
2023-12-30T01:16:38.597Z,93958.50
2023-12-30T01:17:35.433Z,93946.78
2023-12-30T01:18:32.657Z,93955.78
2023-12-30T01:19:29.455Z,93957.84
2023-12-30T01:20:26.151Z,93958.19
2023-12-30T01:21:22.966Z,93956.19
2023-12-30T01:22:19.650Z,93954.94
2023-12-30T01:23:16.438Z,93959.50
2023-12-30T01:24:13.140Z,93955.63
2023-12-30T01:25:09.943Z,93957.56
2023-12-30T01:26:06.609Z,93955.03
2023-12-30T01:27:03.225Z,93935.34
2023-12-30T01:27:59.880Z,93956.22
2023-12-30T01:28:56.565Z,93945.16
2023-12-30T01:29:53.284Z,93947.75
2023-12-30T01:30:50.120Z,93948.97
2023-12-30T01:31:46.912Z,93954.31
2023-12-30T01:32:43.973Z,93954.13
2023-12-30T01:33:41.017Z,93947.00
2023-12-30T01:34:37.814Z,93949.88
2023-12-30T01:35:34.485Z,93946.03
2023-12-30T01:36:31.663Z,93950.78
2023-12-30T01:37:28.387Z,93944.66
2023-12-30T01:38:25.121Z,93949.81
2023-12-30T01:39:21.737Z,93948.41
2023-12-30T01:40:18.411Z,93943.72
2023-12-30T01:41:15.124Z,93946.25
2023-12-30T01:42:12.450Z,93949.94
2023-12-30T01:43:23.883Z,93949.16
2023-12-30T01:44:20.521Z,93946.25
2023-12-30T01:45:17.187Z,93948.16
2023-12-30T01:46:14.289Z,93941.53
2023-12-30T01:47:11.155Z,93944.88
2023-12-30T01:48:08.006Z,93944.94
2023-12-30T01:49:04.906Z,93940.38
2023-12-30T01:50:01.699Z,93933.81
2023-12-30T01:51:01.284Z,93937.31
2023-12-30T01:51:59.077Z,93938.69
2023-12-30T01:52:55.850Z,93936.56
2023-12-30T01:53:53.269Z,93935.00
2023-12-30T01:54:49.973Z,93929.03
2023-12-30T01:55:51.086Z,93933.25
2023-12-30T01:56:50.301Z,93917.66
2023-12-30T01:57:47.089Z,93936.09
2023-12-30T01:58:44.385Z,93932.50
2023-12-30T01:59:41.384Z,93930.75
2023-12-30T02:00:39.637Z,93921.91
2023-12-30T02:01:36.448Z,93927.84
2023-12-30T02:02:33.184Z,93911.06
2023-12-30T02:03:29.995Z,93927.44
2023-12-30T02:04:26.812Z,93932.41
2023-12-30T02:05:23.816Z,93933.78
2023-12-30T02:06:20.625Z,93925.13
2023-12-30T02:07:17.274Z,93927.47
2023-12-30T02:08:14.896Z,93930.41
2023-12-30T02:09:11.656Z,93923.09
2023-12-30T02:10:09.638Z,93927.50
2023-12-30T02:11:06.405Z,93922.72
2023-12-30T02:12:04.275Z,93930.28
2023-12-30T02:13:01.240Z,93935.06
2023-12-30T02:13:58.045Z,93929.19
2023-12-30T02:14:54.765Z,93938.16
2023-12-30T02:15:51.443Z,93936.31
2023-12-30T02:16:48.022Z,93934.28
2023-12-30T02:17:45.296Z,93925.97
2023-12-30T02:18:42.089Z,93937.41
2023-12-30T02:19:38.853Z,93938.84
2023-12-30T02:20:35.574Z,93929.19
2023-12-30T02:21:32.158Z,93926.16
2023-12-30T02:22:28.837Z,93936.16
2023-12-30T02:23:25.461Z,93931.72
2023-12-30T02:24:22.517Z,93934.31
2023-12-30T02:25:19.273Z,93936.53
2023-12-30T02:26:15.976Z,93938.88
2023-12-30T02:27:12.734Z,93935.13
2023-12-30T02:28:09.370Z,93928.28
2023-12-30T02:29:06.018Z,93928.00
2023-12-30T02:30:02.757Z,93925.28
2023-12-30T02:30:59.466Z,93921.41
2023-12-30T02:31:56.123Z,93923.56
2023-12-30T02:32:57.326Z,93933.53
2023-12-30T02:33:54.129Z,93927.66
2023-12-30T02:34:50.868Z,93924.63
2023-12-30T02:35:48.379Z,93922.56
2023-12-30T02:36:46.435Z,93920.44
2023-12-30T02:37:43.118Z,93923.44
2023-12-30T02:38:39.722Z,93919.44
2023-12-30T02:39:36.318Z,93933.69
2023-12-30T02:40:33.004Z,93920.53
2023-12-30T02:41:29.703Z,93919.00
2023-12-30T02:42:26.376Z,93905.84
2023-12-30T02:43:25.744Z,93918.63
2023-12-30T02:44:22.522Z,93928.16
2023-12-30T02:45:19.199Z,93923.25
2023-12-30T02:46:15.806Z,93926.13
2023-12-30T02:47:12.550Z,93917.06
2023-12-30T02:48:09.338Z,93915.75
2023-12-30T02:49:06.568Z,93919.06
2023-12-30T02:50:03.523Z,93927.94
2023-12-30T02:51:00.453Z,93918.25
2023-12-30T02:51:58.803Z,93918.66
2023-12-30T02:52:55.545Z,93926.84
2023-12-30T02:53:52.724Z,93921.88
2023-12-30T02:54:49.510Z,93919.94
2023-12-30T02:55:46.277Z,93918.22
2023-12-30T02:56:43.435Z,93909.28
2023-12-30T02:57:48.620Z,93917.66
2023-12-30T02:58:54.463Z,93921.00
2023-12-30T02:59:51.227Z,93925.44
2023-12-30T03:00:47.902Z,93926.25
2023-12-30T03:01:44.817Z,93918.22
2023-12-30T03:02:42.870Z,93916.50
2023-12-30T03:03:39.512Z,93922.75
2023-12-30T03:04:36.328Z,93921.78
2023-12-30T03:05:34.158Z,93921.00
2023-12-30T03:06:30.980Z,93927.91
2023-12-30T03:07:27.666Z,93921.25
2023-12-30T03:08:24.301Z,93920.53
2023-12-30T03:09:20.944Z,93931.25
2023-12-30T03:10:17.838Z,93921.41
2023-12-30T03:11:14.727Z,93916.44
2023-12-30T03:12:11.356Z,93922.63
2023-12-30T03:13:08.122Z,93930.38
2023-12-30T03:14:05.874Z,93930.13
2023-12-30T03:15:02.502Z,93921.19
2023-12-30T03:15:59.278Z,93920.75
2023-12-30T03:16:56.011Z,93923.00
2023-12-30T03:17:52.721Z,93917.06
2023-12-30T03:18:49.562Z,93918.81
2023-12-30T03:19:46.536Z,93924.47
2023-12-30T03:20:43.785Z,93914.91
2023-12-30T03:21:40.412Z,93917.91
2023-12-30T03:22:37.068Z,93925.97
2023-12-30T03:23:34.844Z,93916.69
2023-12-30T03:24:31.452Z,93918.19
2023-12-30T03:25:28.125Z,93908.16
2023-12-30T03:26:24.837Z,93910.22
2023-12-30T03:27:21.485Z,93919.59
2023-12-30T03:28:18.844Z,93922.72
2023-12-30T03:29:15.619Z,93921.69
2023-12-30T03:30:12.670Z,93916.91
2023-12-30T03:31:09.373Z,93919.84
2023-12-30T03:32:06.052Z,93914.13
2023-12-30T03:33:03.052Z,93921.31
2023-12-30T03:34:00.002Z,93922.41
2023-12-30T03:34:56.660Z,93925.03
2023-12-30T03:35:53.882Z,93921.22
2023-12-30T03:36:50.570Z,93920.25
2023-12-30T03:37:47.180Z,93925.66
2023-12-30T03:38:43.933Z,93881.59
2023-12-30T03:39:40.530Z,93929.88
2023-12-30T03:40:37.228Z,93924.88
2023-12-30T03:41:33.958Z,93924.88
2023-12-30T03:42:30.669Z,93932.13
2023-12-30T03:43:27.409Z,93930.03
2023-12-30T03:44:24.029Z,93932.94
2023-12-30T03:45:20.689Z,93928.25
2023-12-30T03:46:17.419Z,93920.53
2023-12-30T03:47:14.390Z,93919.81
2023-12-30T03:48:11.174Z,93926.25
2023-12-30T03:49:09.182Z,93926.31
2023-12-30T03:50:06.205Z,93935.41
2023-12-30T03:51:02.935Z,93931.28
2023-12-30T03:51:59.612Z,93930.88
2023-12-30T03:52:56.271Z,93933.78
2023-12-30T03:53:53.064Z,93932.69
2023-12-30T03:54:49.882Z,93935.56
2023-12-30T03:55:46.511Z,93932.56
2023-12-30T03:56:43.529Z,93938.84
2023-12-30T03:57:40.166Z,93921.75
2023-12-30T03:58:36.848Z,93933.09
2023-12-30T03:59:33.455Z,93936.84
2023-12-30T04:00:30.117Z,93933.19
2023-12-30T04:01:27.713Z,93940.31
2023-12-30T04:02:24.442Z,93938.97
2023-12-30T04:03:21.255Z,93936.88
2023-12-30T04:04:17.938Z,93941.63
2023-12-30T04:05:14.682Z,93946.00
2023-12-30T04:06:19.948Z,93948.00
2023-12-30T04:07:16.649Z,93943.25
2023-12-30T04:08:13.488Z,93947.53
2023-12-30T04:09:10.144Z,93946.69
2023-12-30T04:10:08.403Z,93905.91
2023-12-30T04:11:05.266Z,93944.84
2023-12-30T04:12:02.010Z,93945.06
2023-12-30T04:12:58.738Z,93943.59
2023-12-30T04:13:55.470Z,93938.69
2023-12-30T04:14:52.542Z,93932.34
2023-12-30T04:15:49.367Z,93948.47
2023-12-30T04:16:46.103Z,93937.72
2023-12-30T04:17:42.753Z,93933.28
2023-12-30T04:18:39.663Z,93946.63
2023-12-30T04:19:36.500Z,93942.28
2023-12-30T04:20:33.266Z,93944.78
2023-12-30T04:21:29.872Z,93896.59
2023-12-30T04:22:28.731Z,93936.16
2023-12-30T04:23:25.630Z,93939.19
2023-12-30T04:24:23.096Z,93943.94
2023-12-30T04:25:19.805Z,93936.03
2023-12-30T04:26:16.571Z,93943.63
2023-12-30T04:27:13.265Z,93938.69
2023-12-30T04:28:09.989Z,93948.50
2023-12-30T04:29:06.694Z,93946.28
2023-12-30T04:30:03.863Z,93947.78
2023-12-30T04:31:01.277Z,93946.69
2023-12-30T04:31:58.006Z,93944.78
2023-12-30T04:32:54.680Z,93943.72
2023-12-30T04:33:51.424Z,93945.78
2023-12-30T04:34:48.325Z,93946.34
2023-12-30T04:35:45.556Z,93948.19
2023-12-30T04:36:42.127Z,93947.41
2023-12-30T04:37:38.738Z,93940.59
2023-12-30T04:38:35.369Z,93943.06
2023-12-30T04:39:31.993Z,93941.41
2023-12-30T04:40:28.658Z,93945.03
2023-12-30T04:41:25.598Z,93942.84
2023-12-30T04:42:22.241Z,93939.44
2023-12-30T04:43:19.028Z,93935.84
2023-12-30T04:44:15.769Z,93943.84
2023-12-30T04:45:14.101Z,93945.72
2023-12-30T04:46:12.932Z,93932.91
2023-12-30T04:47:09.643Z,93942.72
2023-12-30T04:48:07.109Z,93947.91
2023-12-30T04:49:04.292Z,93944.78
2023-12-30T04:50:01.188Z,93945.16
2023-12-30T04:50:57.912Z,93928.63
2023-12-30T04:51:54.540Z,93940.34
2023-12-30T04:52:51.135Z,93946.53
2023-12-30T04:53:47.955Z,93949.94
2023-12-30T04:54:44.760Z,93943.88
2023-12-30T04:55:42.116Z,93944.31
2023-12-30T04:56:38.714Z,93949.34
2023-12-30T04:57:35.336Z,93950.44
2023-12-30T04:58:32.497Z,93944.56
2023-12-30T04:59:29.627Z,93954.63
2023-12-30T05:00:26.426Z,93955.41
2023-12-30T05:01:23.183Z,93937.97
2023-12-30T05:02:19.879Z,93966.38
2023-12-30T05:03:17.963Z,93963.72
2023-12-30T05:04:14.850Z,93966.59
2023-12-30T05:05:11.587Z,93974.56
2023-12-30T05:06:08.281Z,93966.31
2023-12-30T05:07:05.414Z,93974.56
2023-12-30T05:08:05.258Z,93976.69
2023-12-30T05:09:02.888Z,93976.09
2023-12-30T05:09:59.630Z,93973.19
2023-12-30T05:10:56.740Z,93979.19
2023-12-30T05:11:53.431Z,93977.59
2023-12-30T05:12:50.860Z,93966.84
2023-12-30T05:13:47.710Z,93970.94
2023-12-30T05:14:44.516Z,93952.53
2023-12-30T05:15:41.122Z,93969.41
2023-12-30T05:16:47.360Z,93970.91
2023-12-30T05:17:44.842Z,93971.56
2023-12-30T05:18:41.629Z,93961.13
2023-12-30T05:19:38.450Z,93975.69
2023-12-30T05:20:35.093Z,93977.88
2023-12-30T05:21:31.715Z,93952.00
2023-12-30T05:22:28.531Z,93968.31
2023-12-30T05:23:25.185Z,93969.50
2023-12-30T05:24:22.689Z,93976.91
2023-12-30T05:25:19.536Z,93972.34
2023-12-30T05:26:16.306Z,93970.47
2023-12-30T05:27:12.876Z,93975.25
2023-12-30T05:28:09.604Z,93976.47
2023-12-30T05:29:06.261Z,93973.47
2023-12-30T05:30:03.096Z,93980.53
2023-12-30T05:31:00.551Z,93978.56
2023-12-30T05:31:57.379Z,93984.22
2023-12-30T05:32:54.040Z,93985.94
2023-12-30T05:33:50.920Z,93980.47
2023-12-30T05:34:47.651Z,93977.59
2023-12-30T05:35:44.402Z,93983.66
2023-12-30T05:36:41.940Z,93978.19
2023-12-30T05:37:38.731Z,93982.88
2023-12-30T05:38:35.384Z,93986.81
2023-12-30T05:39:32.012Z,93975.38
2023-12-30T05:40:28.630Z,93982.97
2023-12-30T05:41:25.291Z,93981.84
2023-12-30T05:42:22.043Z,93987.78
2023-12-30T05:43:18.657Z,93979.84
2023-12-30T05:44:15.434Z,93983.25
2023-12-30T05:45:12.053Z,93985.44
2023-12-30T05:46:14.984Z,93972.19
2023-12-30T05:47:11.786Z,93979.53
2023-12-30T05:48:09.595Z,93985.78
2023-12-30T05:49:07.346Z,93980.25
2023-12-30T05:50:04.446Z,93983.47
2023-12-30T05:51:01.727Z,93982.22
2023-12-30T05:51:58.353Z,93981.63
2023-12-30T05:52:55.659Z,93974.06
2023-12-30T05:53:52.357Z,93981.75
2023-12-30T05:54:49.061Z,93970.59
2023-12-30T05:55:45.743Z,93977.22
2023-12-30T05:56:42.439Z,93974.72
2023-12-30T05:57:39.117Z,93977.38
2023-12-30T05:58:36.214Z,93978.16
2023-12-30T05:59:33.054Z,93978.47
2023-12-30T06:00:29.711Z,93979.22
2023-12-30T06:01:26.613Z,93976.97
2023-12-30T06:02:23.597Z,93982.44
2023-12-30T06:03:21.117Z,93979.91
2023-12-30T06:04:17.938Z,93975.09
2023-12-30T06:05:14.539Z,93982.31
2023-12-30T06:06:11.355Z,93975.09
2023-12-30T06:07:09.327Z,93977.03
2023-12-30T06:08:06.832Z,93976.66
2023-12-30T06:09:03.839Z,93976.66
2023-12-30T06:10:00.589Z,93974.97
2023-12-30T06:10:57.267Z,93966.94
2023-12-30T06:11:53.834Z,93981.13
2023-12-30T06:12:50.656Z,93976.13
2023-12-30T06:13:47.502Z,93976.56
2023-12-30T06:14:44.161Z,93975.91
2023-12-30T06:15:41.479Z,93982.25
2023-12-30T06:16:38.100Z,93983.75
2023-12-30T06:17:34.768Z,93983.56
2023-12-30T06:18:34.525Z,93979.97
2023-12-30T06:19:32.371Z,93982.38
2023-12-30T06:20:29.087Z,93978.97
2023-12-30T06:21:25.835Z,93986.13
2023-12-30T06:22:22.611Z,93986.16
2023-12-30T06:23:19.287Z,93986.72
2023-12-30T06:24:15.968Z,93993.91
2023-12-30T06:25:12.718Z,93992.19
2023-12-30T06:26:09.314Z,93984.75
2023-12-30T06:27:06.221Z,93994.50
2023-12-30T06:28:02.948Z,93997.25
2023-12-30T06:28:59.757Z,93992.66
2023-12-30T06:29:56.553Z,93990.69
2023-12-30T06:30:53.842Z,93999.34
2023-12-30T06:31:51.247Z,93998.38
2023-12-30T06:32:48.937Z,94005.75
2023-12-30T06:33:45.717Z,94000.94
2023-12-30T06:34:42.847Z,93998.16
2023-12-30T06:35:39.576Z,94003.78
2023-12-30T06:36:36.325Z,94001.56
2023-12-30T06:37:33.087Z,94004.06
2023-12-30T06:38:29.730Z,94006.38
2023-12-30T06:39:26.338Z,94005.22
2023-12-30T06:40:22.950Z,94009.13
2023-12-30T06:41:22.199Z,94008.97
2023-12-30T06:42:18.769Z,94010.97
2023-12-30T06:43:15.565Z,94017.78
2023-12-30T06:44:12.272Z,94009.63
2023-12-30T06:45:09.506Z,94010.25
2023-12-30T06:46:06.320Z,94017.28
2023-12-30T06:47:02.922Z,94025.63
2023-12-30T06:47:59.579Z,94018.59
2023-12-30T06:48:56.316Z,94022.00
2023-12-30T06:49:53.162Z,94018.16
2023-12-30T06:50:49.935Z,94022.53
2023-12-30T06:51:46.780Z,94020.53
2023-12-30T06:52:43.373Z,94023.59
2023-12-30T06:53:39.995Z,94018.53
2023-12-30T06:54:36.653Z,94009.94
2023-12-30T06:55:38.795Z,94019.06
2023-12-30T06:56:42.134Z,94017.44
2023-12-30T06:57:38.775Z,94020.88
2023-12-30T06:58:36.227Z,94023.94
2023-12-30T06:59:32.912Z,94021.81
2023-12-30T07:00:29.551Z,93999.66
2023-12-30T07:01:26.655Z,94029.38
2023-12-30T07:02:23.335Z,94023.47
2023-12-30T07:03:19.987Z,94031.38
2023-12-30T07:04:16.799Z,94025.97
2023-12-30T07:05:13.508Z,94021.34
2023-12-30T07:06:10.254Z,94016.94
2023-12-30T07:07:06.970Z,94028.91
2023-12-30T07:08:03.763Z,94025.88
2023-12-30T07:09:00.446Z,94035.31
2023-12-30T07:09:57.186Z,94035.69
2023-12-30T07:10:53.792Z,94029.63
2023-12-30T07:11:50.431Z,94037.75
2023-12-30T07:12:47.096Z,94030.06
2023-12-30T07:13:44.685Z,94036.78
2023-12-30T07:14:41.480Z,94038.63
2023-12-30T07:15:38.135Z,94036.81
2023-12-30T07:16:34.908Z,94040.78
2023-12-30T07:17:31.592Z,94037.66
2023-12-30T07:18:28.347Z,94040.84
2023-12-30T07:19:25.149Z,94040.84
2023-12-30T07:20:24.630Z,94035.31
2023-12-30T07:21:21.357Z,94041.06
2023-12-30T07:22:20.522Z,94048.94
2023-12-30T07:23:17.155Z,94042.41
2023-12-30T07:24:14.102Z,94041.28
2023-12-30T07:25:10.738Z,94041.84
2023-12-30T07:26:08.528Z,94042.63
2023-12-30T07:27:06.293Z,94021.13
2023-12-30T07:28:03.363Z,94043.53
2023-12-30T07:29:00.501Z,94052.72
2023-12-30T07:29:58.659Z,94052.41
2023-12-30T07:30:56.049Z,94046.97
2023-12-30T07:31:52.824Z,94049.88
2023-12-30T07:32:49.530Z,94046.56
2023-12-30T07:33:46.221Z,94043.31
2023-12-30T07:34:43.044Z,94041.97
2023-12-30T07:35:39.702Z,94052.63
2023-12-30T07:36:36.366Z,94048.13
2023-12-30T07:37:33.941Z,94050.75
2023-12-30T07:38:32.138Z,94041.19
2023-12-30T07:39:29.457Z,94060.63
2023-12-30T07:40:26.361Z,94060.03
2023-12-30T07:41:23.000Z,94060.13
2023-12-30T07:42:21.361Z,94053.88
2023-12-30T07:43:19.476Z,94046.63
2023-12-30T07:44:16.370Z,94048.25
2023-12-30T07:45:13.105Z,94053.41
2023-12-30T07:46:09.829Z,94055.47
2023-12-30T07:47:08.318Z,94060.22
2023-12-30T07:48:05.578Z,94061.13
2023-12-30T07:49:02.271Z,94059.13
2023-12-30T07:49:59.008Z,94055.69
2023-12-30T07:50:55.892Z,94065.31
2023-12-30T07:51:54.370Z,94058.50
2023-12-30T07:52:51.232Z,94051.38
2023-12-30T07:53:47.956Z,94056.06
2023-12-30T07:54:44.535Z,94064.16
2023-12-30T07:55:41.298Z,94057.09
2023-12-30T07:56:37.917Z,94045.38
2023-12-30T07:57:34.597Z,94055.22
2023-12-30T07:58:31.299Z,94065.00
2023-12-30T07:59:27.940Z,94066.13
2023-12-30T08:00:24.678Z,94064.97
2023-12-30T08:01:21.408Z,94068.91
2023-12-30T08:02:18.131Z,94066.94
2023-12-30T08:03:14.869Z,94065.19
2023-12-30T08:04:12.300Z,94066.28
2023-12-30T08:05:09.216Z,94072.88
2023-12-30T08:06:06.190Z,94067.63
2023-12-30T08:07:03.044Z,94054.09
2023-12-30T08:07:59.799Z,94071.16
2023-12-30T08:08:56.357Z,94077.00
2023-12-30T08:09:52.952Z,94065.66
2023-12-30T08:10:49.583Z,94025.28
2023-12-30T08:11:54.957Z,94070.06
2023-12-30T08:12:58.491Z,94073.09
2023-12-30T08:13:55.277Z,94073.66
2023-12-30T08:14:51.923Z,94082.88
2023-12-30T08:15:48.639Z,94081.25
2023-12-30T08:16:45.624Z,94079.94
2023-12-30T08:17:42.391Z,94090.22
2023-12-30T08:18:39.308Z,94079.16
2023-12-30T08:19:36.052Z,94084.31
2023-12-30T08:20:32.738Z,94066.00
2023-12-30T08:21:29.871Z,94079.50
2023-12-30T08:22:26.502Z,94080.88
2023-12-30T08:23:23.139Z,94077.72
2023-12-30T08:24:20.700Z,94084.25
2023-12-30T08:25:17.637Z,94080.22
2023-12-30T08:26:14.301Z,94085.25
2023-12-30T08:27:11.025Z,94084.59
2023-12-30T08:28:07.687Z,94090.81
2023-12-30T08:29:05.864Z,94078.00
2023-12-30T08:30:02.545Z,94088.84
2023-12-30T08:31:57.017Z,94085.19
2023-12-30T08:32:53.686Z,94084.72
2023-12-30T08:33:52.258Z,94092.31
2023-12-30T08:34:48.958Z,94089.75
2023-12-30T08:35:45.720Z,94087.50
2023-12-30T08:36:44.276Z,94095.84
2023-12-30T08:37:41.180Z,94097.75
2023-12-30T08:38:37.979Z,94097.91
2023-12-30T08:39:36.827Z,94092.56
2023-12-30T08:40:36.174Z,94096.50
2023-12-30T08:41:35.171Z,94094.31
2023-12-30T08:42:36.023Z,94090.81
2023-12-30T08:43:32.719Z,94090.50
2023-12-30T08:44:29.508Z,94087.16
2023-12-30T08:45:26.109Z,94096.41
2023-12-30T08:46:23.264Z,94088.44
2023-12-30T08:47:20.616Z,94088.81
2023-12-30T08:48:17.825Z,94094.28
2023-12-30T08:49:14.578Z,94093.19
2023-12-30T08:50:11.620Z,94092.56
2023-12-30T08:51:08.243Z,94094.19
2023-12-30T08:52:06.381Z,94089.13
2023-12-30T08:53:03.472Z,94091.31
2023-12-30T08:54:00.478Z,94095.41
2023-12-30T08:54:57.347Z,94097.56
2023-12-30T08:55:56.456Z,94085.88
2023-12-30T08:56:55.267Z,94093.69
2023-12-30T08:57:52.032Z,94096.50
2023-12-30T08:58:48.675Z,94096.50
2023-12-30T08:59:45.304Z,94091.34
2023-12-30T09:00:42.389Z,94081.66
2023-12-30T09:01:39.149Z,94086.19
2023-12-30T09:02:47.321Z,94081.84
2023-12-30T09:03:44.163Z,94083.19
2023-12-30T09:04:40.852Z,94078.53
2023-12-30T09:05:37.706Z,94081.03
2023-12-30T09:06:34.363Z,94080.44
2023-12-30T09:07:32.193Z,94071.69
2023-12-30T09:08:28.892Z,94072.16
2023-12-30T09:09:26.005Z,94072.47
2023-12-30T09:10:22.632Z,94086.59
2023-12-30T09:11:23.577Z,94072.34
2023-12-30T09:12:20.265Z,94076.16
2023-12-30T09:13:16.891Z,94073.78
2023-12-30T09:14:14.573Z,94076.44
2023-12-30T09:15:11.359Z,94068.88
2023-12-30T09:16:07.981Z,94071.22
2023-12-30T09:17:04.909Z,94071.53
2023-12-30T09:18:01.678Z,94071.34
2023-12-30T09:18:58.499Z,94063.28
2023-12-30T09:19:55.659Z,94063.06
2023-12-30T09:20:52.446Z,94057.72
2023-12-30T09:21:49.068Z,94064.91
2023-12-30T09:22:45.686Z,94054.28
2023-12-30T09:23:42.658Z,94067.94
2023-12-30T09:24:39.527Z,94061.56
2023-12-30T09:25:36.254Z,94060.13
2023-12-30T09:26:32.836Z,94055.31
2023-12-30T09:27:29.536Z,94063.28
2023-12-30T09:28:26.159Z,94061.56
2023-12-30T09:29:22.809Z,94053.91
2023-12-30T09:30:19.582Z,94059.97
2023-12-30T09:31:17.324Z,94061.72
2023-12-30T09:32:14.112Z,94062.47
2023-12-30T09:33:12.356Z,94068.22
2023-12-30T09:34:09.835Z,94060.63
2023-12-30T09:35:07.409Z,94059.34
2023-12-30T09:36:05.990Z,94053.09
2023-12-30T09:37:03.052Z,94056.56
2023-12-30T09:37:59.696Z,94055.06
2023-12-30T09:38:56.347Z,94044.94
2023-12-30T09:39:53.086Z,94052.41
2023-12-30T09:40:53.677Z,94057.63
2023-12-30T09:41:50.330Z,94058.38
2023-12-30T09:42:50.946Z,94055.09
2023-12-30T09:43:49.185Z,94053.81
2023-12-30T09:44:47.950Z,94058.16
2023-12-30T09:45:44.979Z,94049.50
2023-12-30T09:46:41.782Z,94039.19
2023-12-30T09:47:39.654Z,94048.50
2023-12-30T09:48:37.812Z,94044.03
2023-12-30T09:49:37.043Z,94047.44
2023-12-30T09:50:33.826Z,94041.03
2023-12-30T09:51:32.325Z,94032.72
2023-12-30T09:52:29.038Z,94042.88
2023-12-30T09:53:26.214Z,94037.69
2023-12-30T09:54:31.392Z,94036.56
2023-12-30T09:55:31.341Z,94039.25
2023-12-30T09:56:28.060Z,94025.66
2023-12-30T09:57:24.800Z,94028.34
2023-12-30T09:58:23.668Z,94031.88
2023-12-30T09:59:20.736Z,94030.00
2023-12-30T10:00:20.045Z,94026.66
2023-12-30T10:01:17.772Z,94033.03
2023-12-30T10:02:14.864Z,94028.50
2023-12-30T10:03:12.738Z,94024.94
2023-12-30T10:04:09.596Z,94035.78
2023-12-30T10:05:07.868Z,94033.78
2023-12-30T10:06:05.849Z,94038.69
2023-12-30T10:07:02.965Z,94027.59
2023-12-30T10:08:04.840Z,94033.13
2023-12-30T10:09:02.004Z,94037.47
2023-12-30T10:09:58.696Z,94032.56
2023-12-30T10:10:55.425Z,94035.25
2023-12-30T10:11:52.157Z,94030.50
2023-12-30T10:12:48.817Z,94026.84
2023-12-30T10:13:45.468Z,94020.38
2023-12-30T10:14:42.293Z,94018.97
2023-12-30T10:15:40.287Z,94002.50
2023-12-30T10:16:37.309Z,94026.53
2023-12-30T10:17:34.603Z,94018.19
2023-12-30T10:18:32.656Z,94014.28
2023-12-30T10:19:29.378Z,94013.44
2023-12-30T10:20:26.039Z,94003.78
2023-12-30T10:21:22.862Z,94010.56
2023-12-30T10:22:19.512Z,94014.09
2023-12-30T10:23:16.229Z,94014.22
2023-12-30T10:24:12.980Z,94009.97
2023-12-30T10:25:10.293Z,94010.22
2023-12-30T10:26:07.539Z,94012.25
2023-12-30T10:27:06.040Z,94009.69
2023-12-30T10:28:03.885Z,93998.06
2023-12-30T10:29:01.182Z,94011.81
2023-12-30T10:30:00.693Z,94003.25
2023-12-30T10:31:05.737Z,94010.09
2023-12-30T10:32:05.030Z,94008.34
2023-12-30T10:33:10.238Z,94010.38
2023-12-30T10:34:07.500Z,94001.78
2023-12-30T10:35:05.252Z,94006.97
2023-12-30T10:36:01.863Z,94004.44
2023-12-30T10:36:59.265Z,93995.03
2023-12-30T10:37:56.341Z,94007.28
2023-12-30T10:38:55.234Z,94005.09
2023-12-30T10:39:54.316Z,94010.38
2023-12-30T10:40:55.530Z,93994.47
2023-12-30T10:41:52.650Z,94001.78
2023-12-30T10:42:49.310Z,93996.66
2023-12-30T10:43:46.158Z,94002.25
2023-12-30T10:44:43.518Z,94005.22
2023-12-30T10:45:40.810Z,93999.34
2023-12-30T10:46:39.367Z,93998.47
2023-12-30T10:47:41.093Z,93999.66
2023-12-30T10:48:47.305Z,94001.22
2023-12-30T10:49:55.629Z,93995.75
2023-12-30T10:50:56.246Z,94002.34
2023-12-30T10:51:55.166Z,94001.19
2023-12-30T10:53:01.325Z,93996.34
2023-12-30T10:54:08.815Z,93994.13
2023-12-30T10:55:15.893Z,93989.78
2023-12-30T10:56:17.307Z,93988.44
2023-12-30T10:57:18.756Z,93989.59
2023-12-30T10:58:21.066Z,93991.31
2023-12-30T10:59:19.700Z,93989.38
2023-12-30T11:00:21.572Z,93984.81
2023-12-30T11:01:19.243Z,93977.69
2023-12-30T11:02:16.730Z,93983.22
2023-12-30T11:03:13.669Z,93986.47
2023-12-30T11:04:15.895Z,93991.63
2023-12-30T11:05:20.103Z,93984.84
2023-12-30T11:06:24.309Z,93973.50
2023-12-30T11:07:22.074Z,93984.16
2023-12-30T11:08:19.149Z,93979.25
2023-12-30T11:09:16.120Z,93977.25
2023-12-30T11:10:20.863Z,93981.69
2023-12-30T11:11:20.708Z,93981.94
2023-12-30T11:12:17.348Z,93981.06
2023-12-30T11:13:14.124Z,93982.25
2023-12-30T11:14:16.237Z,93976.38
2023-12-30T11:15:32.124Z,93970.72